Airfield :







YOU CAN JOIN US ON...

 
LOGIN :

Register | Disclaimer

   EN    FR    IT 

 









Legend :    VFR   Marginal VFR   IFR   Intensive IFR   Very Intensive IFR
Visi :
Ceiling :
>= 8 km
>= 3000ft
5 to 8 km
1000 to 3000 ft
1500m to 5 km
500 to 1000 ft
800 to 1500m
200 to 500 ft
< 800m
< 200 ft
Symbols :   Thunderstorms  Fog  Heavy snow  Heavy precipitations  Wind > 20 kt






- Airport Elevation : 129 ft
- IATA code : YVP


CYVP - Kuujjuak

CURRENT METAR :
  • 010500Z 07009KT 15SM BKN240 M10/M13 A3078 RMK CI5 SLP430

EXPIRED METARs :
  • 010400Z 06008KT 15SM BKN240 M10/M12 A3079 RMK CI5 SLP431
  • 010300Z 05011KT 15SM FEW026 SCT240 M10/M12 A3080 RMK SC1CI2 SLP435

TAF TAF CYVP
Valid from the 01 at 06:00 until the 01 at 18:00 UTC


010538Z 0106/0118 06008KT P6SM FEW020 BKN240
TEMPO 0106/0108 BKN020 OVC240
BECMG 0116/0118 06012KT RMK NXT FCST BY 011200Z



MET'MAP, your aeronautical weather chart ! - Copyright ORBIFLY December 2007 - Disclaimer

ORBIFLY MET'MAP TEAM :

Programming & Development : Alexandra Zaïnal
Concept & original design : Baudouin d'Aumeries
Assistance for programming : Marc-Olivier Méhu
Technical & hardware support : Manuel Goepfert

Contact : metmap@orbifly.com




SOURCES & CREDITS :

   NOAA